KMRN

Foothills Regional Airport

Morganton, North Carolina, USA
METAR KMRN 201950Z AUTO 12004KT 10SM SCT028 SCT037 SCT055 29/21 A3006 RMK AO2 T02880210
Observed Flight Rules
Aug-20 @ 19:50 UTC (38 minutes ago) Visual Flight Rules
Wind Visibility Clouds
120° at 4 knots 10 miles
  • Scattered at 2,800' AGL
  • Scattered at 3,700' AGL
  • Scattered at 5,500' AGL
Temperatures Readings
Current 29°C / 84°F
Dewpoint 21°C / 70°F
Humidity 62%
Altimeter 30.06" Hg
Pressure 1018 hPa
Elevation 387
METAR KMRN 201950Z AUTO 12004KT 10SM SCT028 SCT037 SCT055 29/21 A3006 RMK AO2 T02880210
Observed Flight Rules
Aug-20 @ 19:50 UTC
(38 minutes ago)
VFR
Wind Visibility
120° at 4 knots 10 miles
Clouds
  • Scattered at 2,800' AGL
  • Scattered at 3,700' AGL
  • Scattered at 5,500' AGL
Temperature Dewpoint
29°C / 84°F 21°C / 70°F
Humidity Altimeter Pressure
62% 30.06" Hg 1018 hPa